Time;durP1;ratioP1;P1;durP2;ratioP2;P2;SDS_P1;SDS_P2;PMS_P1;PMS_P2;Temp;Humidity;BMP_temperature;BMP_pressure;BME280_temperature;BME280_humidity;BME280_pressure;Samples;Min_cycle;Max_cycle;Signal;HPM_P1;HPM_P2
2022/12/14 00:01:34;;;;;;;25.00;11.30;;;2.80;66.90;;;;;;2338391;54;20931;-72
2022/12/14 00:04:01;;;;;;;24.45;11.35;;;2.80;66.90;;;;;;2337644;54;20927;-71
2022/12/14 00:06:39;;;;;;;22.27;11.02;;;2.80;66.90;;;;;;2337296;54;21354;-74
2022/12/14 00:09:05;;;;;;;27.25;13.02;;;2.80;66.80;;;;;;2583147;53;21941;-73
2022/12/14 00:11:32;;;;;;;25.05;13.25;;;2.80;66.80;;;;;;2337624;54;20915;-74
2022/12/14 00:14:02;;;;;;;28.27;14.18;;;2.80;66.90;;;;;;2587273;52;20969;-73
2022/12/14 00:16:29;;;;;;;27.67;14.02;;;2.80;66.90;;;;;;2341347;53;21245;-73
2022/12/14 00:18:57;;;;;;;29.27;14.32;;;2.80;66.90;;;;;;2384651;53;21744;-74
2022/12/14 00:21:26;;;;;;;28.67;14.57;;;2.80;67.00;;;;;;2337760;54;20975;-73
2022/12/14 00:23:53;;;;;;;27.42;13.32;;;2.80;67.00;;;;;;2344605;53;21464;-73
2022/12/14 00:26:23;;;;;;;30.30;13.90;;;2.80;67.00;;;;;;2337803;53;21014;-73
2022/12/14 00:28:52;;;;;;;27.87;14.05;;;2.80;67.00;;;;;;2583464;53;21711;-70
2022/12/14 00:31:18;;;;;;;29.65;14.55;;;2.80;67.00;;;;;;2337723;54;20919;-73
2022/12/14 00:33:45;;;;;;;32.20;14.98;;;2.80;67.10;;;;;;2583573;53;20993;-74
2022/12/14 00:36:12;;;;;;;29.00;14.30;;;2.80;67.00;;;;;;2338039;54;21125;-72
2022/12/14 00:38:39;;;;;;;32.17;14.50;;;2.80;67.00;;;;;;2344623;53;20963;-74
2022/12/14 00:41:05;;;;;;;27.08;13.88;;;2.80;67.00;;;;;;2583054;53;21658;-74
2022/12/14 00:43:31;;;;;;;27.42;13.10;;;2.80;67.00;;;;;;2583551;53;20975;-71
2022/12/14 00:45:58;;;;;;;25.48;12.85;;;2.90;67.10;;;;;;2337569;54;20975;-74
2022/12/14 00:48:25;;;;;;;20.75;10.73;;;2.90;67.10;;;;;;2442339;53;20983;-72
2022/12/14 00:50:53;;;;;;;22.40;11.05;;;2.90;67.10;;;;;;2338163;54;20947;-72
2022/12/14 00:53:20;;;;;;;27.65;13.50;;;2.90;67.10;;;;;;2349553;53;20974;-73
2022/12/14 00:55:47;;;;;;;24.83;12.80;;;2.90;67.10;;;;;;2338391;54;22366;-73
2022/12/14 00:58:16;;;;;;;23.20;11.45;;;2.90;67.10;;;;;;2400867;53;21010;-72
2022/12/14 01:00:46;;;;;;;21.85;11.82;;;2.90;67.10;;;;;;2337477;54;20903;-71
2022/12/14 01:03:15;;;;;;;25.25;12.23;;;2.90;67.10;;;;;;2502486;53;20915;-75
2022/12/14 01:05:41;;;;;;;23.27;12.25;;;2.90;67.10;;;;;;2338205;54;20915;-72
2022/12/14 01:08:08;;;;;;;28.62;14.30;;;2.90;67.10;;;;;;2512995;53;20935;-72
2022/12/14 01:10:38;;;;;;;34.80;16.62;;;2.90;67.10;;;;;;2520817;53;20962;-71
2022/12/14 01:13:05;;;;;;;28.00;12.93;;;2.90;67.10;;;;;;2338043;54;20887;-72
2022/12/14 01:15:33;;;;;;;27.75;14.10;;;2.90;67.20;;;;;;2339689;53;21021;-74
2022/12/14 01:18:00;;;;;;;22.77;11.90;;;2.90;67.20;;;;;;2337834;53;20895;-72
2022/12/14 01:20:27;;;;;;;21.12;10.82;;;3.00;67.30;;;;;;2337905;54;20900;-74
2022/12/14 01:22:55;;;;;;;21.90;11.23;;;3.00;67.20;;;;;;2335792;54;20915;-72
2022/12/14 01:25:21;;;;;;;23.48;11.00;;;3.00;67.20;;;;;;2338077;54;20938;-73
2022/12/14 01:27:47;;;;;;;23.83;11.10;;;3.00;67.10;;;;;;2337651;54;21022;-69
2022/12/14 01:30:15;;;;;;;23.80;12.02;;;3.00;67.10;;;;;;2337215;54;20938;-70
2022/12/14 01:32:42;;;;;;;18.48;10.02;;;3.00;67.00;;;;;;2343700;53;20925;-72
2022/12/14 01:35:08;;;;;;;21.67;10.68;;;3.00;66.90;;;;;;2337596;53;21032;-71
2022/12/14 01:37:35;;;;;;;22.02;10.65;;;3.00;66.80;;;;;;2338204;54;21370;-72
2022/12/14 01:40:02;;;;;;;21.83;11.05;;;3.00;66.80;;;;;;2337454;54;21407;-73
2022/12/14 01:42:28;;;;;;;21.33;11.25;;;3.00;66.80;;;;;;2337953;54;21003;-73
2022/12/14 01:44:56;;;;;;;24.80;12.15;;;2.90;66.80;;;;;;2337600;54;20895;-70
2022/12/14 01:47:35;;;;;;;27.37;13.95;;;3.00;66.90;;;;;;2356218;53;21134;-74
2022/12/14 01:50:47;;;;;;;30.12;13.70;;;2.90;66.90;;;;;;2342354;54;20909;-73
2022/12/14 01:53:18;;;;;;;20.05;10.85;;;3.00;66.70;;;;;;2337560;54;20983;-75
2022/12/14 01:55:48;;;;;;;23.08;11.23;;;3.00;67.00;;;;;;2337698;54;21348;-75
2022/12/14 01:58:21;;;;;;;23.45;11.10;;;3.00;67.00;;;;;;2337501;54;21031;-73
2022/12/14 02:00:49;;;;;;;27.95;13.75;;;3.00;66.80;;;;;;2391671;53;20939;-72
2022/12/14 02:03:26;;;;;;;26.60;13.98;;;3.00;66.90;;;;;;2336814;54;21571;-72
2022/12/14 02:06:02;;;;;;;26.55;13.07;;;3.00;66.80;;;;;;2342539;53;21477;-74
2022/12/14 02:08:29;;;;;;;26.15;13.52;;;2.90;66.70;;;;;;2343294;53;21336;-71
2022/12/14 02:10:58;;;;;;;26.20;13.93;;;2.90;66.80;;;;;;2586532;52;21050;-73
2022/12/14 02:13:27;;;;;;;31.23;14.77;;;2.90;66.80;;;;;;2338296;54;21019;-71
2022/12/14 02:15:56;;;;;;;21.07;11.83;;;2.90;66.80;;;;;;2551787;53;20895;-70
2022/12/14 02:18:24;;;;;;;30.50;14.95;;;2.90;66.80;;;;;;2337474;54;20987;-72
2022/12/14 02:21:28;;;;;;;29.20;14.82;;;2.90;66.80;;;;;;2338153;54;20971;-74
2022/12/14 02:24:28;;;;;;;35.50;16.65;;;2.90;66.70;;;;;;2338073;54;20967;-74
2022/12/14 02:29:42;;;;;;;25.08;12.70;;;2.90;66.80;;;;;;2337743;54;21587;-75
2022/12/14 02:34:00;;;;;;;28.92;12.85;;;2.90;66.90;;;;;;2471470;52;21254;-71
2022/12/14 02:36:52;;;;;;;30.05;14.18;;;2.90;66.80;;;;;;2368897;53;20905;-71
2022/12/14 02:45:43;;;;;;;38.70;16.02;;;3.00;66.90;;;;;;2322552;55;21010;-71
2022/12/14 02:48:23;;;;;;;27.90;13.15;;;3.00;67.20;;;;;;2582463;53;20971;-74
2022/12/14 02:53:28;;;;;;;29.58;14.20;;;3.00;67.10;;;;;;2338552;54;21404;-74
2022/12/14 02:55:56;;;;;;;26.65;12.77;;;3.00;66.70;;;;;;2410048;53;20896;-73
2022/12/14 02:58:40;;;;;;;32.10;14.77;;;3.00;67.20;;;;;;2583089;53;20927;-73
2022/12/14 03:01:13;;;;;;;26.60;13.65;;;3.00;67.30;;;;;;2337766;54;20911;-74
2022/12/14 03:03:41;;;;;;;29.17;14.43;;;3.00;67.30;;;;;;2583614;53;20915;-71
2022/12/14 03:06:29;;;;;;;25.67;14.23;;;3.00;67.30;;;;;;2338137;54;20899;-73
2022/12/14 03:09:07;;;;;;;26.40;13.18;;;3.00;67.20;;;;;;2338178;54;20991;-72
2022/12/14 03:12:08;;;;;;;21.98;11.75;;;3.00;67.10;;;;;;2337478;54;20927;-74
2022/12/14 03:14:46;;;;;;;21.70;11.07;;;3.00;66.90;;;;;;2338170;54;21365;-73
2022/12/14 03:17:18;;;;;;;26.52;13.35;;;3.00;67.00;;;;;;2337814;54;21635;-71
2022/12/14 03:19:54;;;;;;;25.15;12.75;;;3.00;67.10;;;;;;2338294;54;20899;-70
2022/12/14 03:22:40;;;;;;;26.23;12.82;;;3.00;67.10;;;;;;2338230;54;21038;-71
2022/12/14 03:25:54;;;;;;;29.85;14.90;;;3.00;66.90;;;;;;2341727;54;20899;-70
2022/12/14 03:30:12;;;;;;;24.98;13.10;;;3.00;66.70;;;;;;2339268;54;20935;-69
2022/12/14 03:32:41;;;;;;;22.02;11.27;;;3.00;66.50;;;;;;2338302;54;20931;-71
2022/12/14 03:35:26;;;;;;;23.75;12.00;;;3.00;67.00;;;;;;2338178;54;20974;-71
2022/12/14 03:39:22;;;;;;;27.48;13.45;;;2.90;66.80;;;;;;2583295;53;20895;-72
2022/12/14 03:43:54;;;;;;;26.17;12.37;;;3.00;66.50;;;;;;2338639;54;20991;-75
2022/12/14 03:46:48;;;;;;;21.45;10.25;;;3.00;66.70;;;;;;2337879;54;20927;-70
2022/12/14 03:49:31;;;;;;;25.02;12.23;;;2.90;66.80;;;;;;2443558;53;20963;-73
2022/12/14 03:52:21;;;;;;;24.50;11.40;;;2.90;67.00;;;;;;2338187;54;20938;-70
2022/12/14 03:55:27;;;;;;;23.10;11.68;;;2.90;67.10;;;;;;2338411;54;20991;-74
2022/12/14 03:59:48;;;;;;;23.92;10.65;;;2.90;66.90;;;;;;2338011;54;20922;-73
2022/12/14 04:02:24;;;;;;;24.98;11.85;;;2.90;66.60;;;;;;2582144;53;20887;-74
2022/12/14 04:05:16;;;;;;;29.35;13.48;;;2.90;67.10;;;;;;2337970;54;20907;-72
2022/12/14 04:08:03;;;;;;;35.03;16.17;;;2.90;67.10;;;;;;2346065;53;21011;-73
2022/12/14 04:18:58;;;;;;;37.35;19.02;;;3.00;67.40;;;;;;2338118;54;20970;-74
2022/12/14 04:21:32;;;;;;;33.28;17.00;;;3.00;67.40;;;;;;2342150;53;21013;-69
2022/12/14 04:27:12;;;;;;;32.67;15.30;;;3.00;67.40;;;;;;2391770;53;20931;-73
2022/12/14 04:29:56;;;;;;;33.03;16.50;;;3.00;67.40;;;;;;2338180;54;20922;-72
2022/12/14 04:32:35;;;;;;;40.30;18.33;;;3.00;67.50;;;;;;2338963;54;21409;-73
2022/12/14 04:35:17;;;;;;;33.03;16.45;;;3.00;67.40;;;;;;2337803;54;20939;-72
2022/12/14 04:37:44;;;;;;;;;;;3.10;67.50;;;;;;2341791;54;21890;-73
2022/12/14 04:40:13;;;;;;;26.27;12.65;;;3.10;66.90;;;;;;2337709;54;20162;-75
2022/12/14 04:43:04;;;;;;;26.37;13.35;;;3.10;67.50;;;;;;2362550;53;20934;-72
2022/12/14 04:45:36;;;;;;;25.23;12.57;;;3.10;67.50;;;;;;2343806;53;21826;-70
2022/12/14 04:49:40;;;;;;;27.73;13.77;;;3.10;67.40;;;;;;2337475;54;20975;-72
2022/12/14 04:52:31;;;;;;;24.67;12.25;;;3.10;67.30;;;;;;2338052;54;20887;-70
2022/12/14 05:02:07;;;;;;;23.48;11.75;;;3.10;67.20;;;;;;2583303;53;21380;-73
2022/12/14 05:05:01;;;;;;;21.62;9.88;;;3.10;66.60;;;;;;2338120;54;20903;-72
2022/12/14 05:07:52;;;;;;;25.60;11.93;;;3.10;66.90;;;;;;2557999;53;20891;-73
2022/12/14 05:10:36;;;;;;;24.60;12.35;;;3.10;67.00;;;;;;2337256;54;20955;-69
2022/12/14 05:13:52;;;;;;;27.40;12.52;;;3.10;67.20;;;;;;2583380;53;21412;-73
2022/12/14 05:16:20;;;;;;;26.33;12.70;;;3.10;67.10;;;;;;2337366;54;20967;-71
2022/12/14 05:18:47;;;;;;;30.45;13.88;;;3.00;67.10;;;;;;2338258;54;21051;-72
2022/12/14 05:21:45;;;;;;;29.12;14.75;;;3.00;67.10;;;;;;2586306;52;21473;-73
2022/12/14 05:24:16;;;;;;;29.65;13.65;;;3.00;67.10;;;;;;2582609;53;20903;-73
2022/12/14 05:26:43;;;;;;;26.90;14.05;;;3.00;67.10;;;;;;2400374;53;20968;-70
2022/12/14 05:29:09;;;;;;;26.33;12.80;;;3.00;67.10;;;;;;2337379;54;21740;-74
2022/12/14 05:31:46;;;;;;;27.98;14.13;;;3.00;67.10;;;;;;2337713;54;20917;-71
2022/12/14 05:34:13;;;;;;;28.58;14.45;;;3.00;67.10;;;;;;2562883;52;20948;-70
2022/12/14 05:36:40;;;;;;;26.23;12.65;;;3.00;67.20;;;;;;2459814;52;21775;-70
2022/12/14 05:39:06;;;;;;;26.65;11.93;;;3.00;67.20;;;;;;2583546;53;20951;-73
2022/12/14 05:41:33;;;;;;;27.20;13.70;;;3.00;67.20;;;;;;2337388;54;20927;-74
2022/12/14 05:43:59;;;;;;;30.25;14.18;;;3.00;67.30;;;;;;2373654;53;21387;-69
2022/12/14 05:46:26;;;;;;;31.20;14.90;;;3.00;67.30;;;;;;2430655;53;20959;-74
2022/12/14 05:48:53;;;;;;;27.55;13.07;;;3.00;67.30;;;;;;2583747;53;20895;-73
2022/12/14 05:51:19;;;;;;;36.47;16.37;;;3.00;67.30;;;;;;2337487;54;21211;-73
2022/12/14 05:53:46;;;;;;;35.30;16.33;;;3.00;67.20;;;;;;2587831;52;21011;-71
2022/12/14 05:56:14;;;;;;;36.50;17.50;;;3.00;67.10;;;;;;2337075;54;20963;-72
2022/12/14 05:58:40;;;;;;;35.88;16.60;;;2.90;67.00;;;;;;2338225;54;20959;-70
2022/12/14 06:01:12;;;;;;;29.90;15.25;;;2.90;67.00;;;;;;2503812;53;20965;-69
2022/12/14 06:03:41;;;;;;;35.38;16.58;;;2.90;67.70;;;;;;2340083;53;20923;-72
2022/12/14 06:06:09;;;;;;;33.22;15.93;;;2.90;67.00;;;;;;2337581;54;21114;-69
2022/12/14 06:08:40;;;;;;;31.02;15.10;;;2.90;66.90;;;;;;2355820;53;20977;-71
2022/12/14 06:11:09;;;;;;;27.37;14.15;;;2.90;66.90;;;;;;2361228;53;20891;-71
2022/12/14 06:13:36;;;;;;;29.17;13.88;;;2.90;66.90;;;;;;2516334;53;21040;-70
2022/12/14 06:16:07;;;;;;;27.75;14.02;;;2.90;66.90;;;;;;2337975;54;20942;-71
2022/12/14 06:18:34;;;;;;;26.83;14.00;;;2.80;66.80;;;;;;2584625;52;21493;-71
2022/12/14 06:21:00;;;;;;;31.23;13.52;;;2.80;66.90;;;;;;2345460;53;20915;-71
2022/12/14 06:23:27;;;;;;;30.40;13.82;;;2.80;67.00;;;;;;2379025;53;20995;-71
2022/12/14 06:25:55;;;;;;;27.55;14.18;;;2.80;67.00;;;;;;2338009;54;20935;-70
2022/12/14 06:31:50;;;;;;;26.33;13.15;;;2.80;67.00;;;;;;2336924;54;21791;-72
2022/12/14 06:34:17;;;;;;;27.92;13.00;;;2.80;67.10;;;;;;2357479;53;20919;-70
2022/12/14 06:36:45;;;;;;;27.95;13.20;;;2.80;67.10;;;;;;2340572;53;20915;-72
2022/12/14 06:39:14;;;;;;;27.25;13.02;;;2.80;67.10;;;;;;2583050;53;20963;-72
2022/12/14 06:41:40;;;;;;;26.25;13.65;;;2.80;67.10;;;;;;2569011;53;20879;-70
2022/12/14 06:44:11;;;;;;;28.48;14.02;;;2.80;67.20;;;;;;2367833;53;21369;-71
2022/12/14 06:46:39;;;;;;;27.98;13.52;;;2.80;67.10;;;;;;2338927;53;20952;-73
2022/12/14 06:49:05;;;;;;;23.67;12.45;;;2.80;67.10;;;;;;2583154;53;20907;-74
2022/12/14 06:51:36;;;;;;;26.98;13.57;;;2.80;67.00;;;;;;2337914;54;21505;-72
2022/12/14 06:54:03;;;;;;;26.23;12.05;;;2.80;67.10;;;;;;2583110;53;21330;-73
2022/12/14 06:56:30;;;;;;;26.75;13.02;;;2.80;67.80;;;;;;2583476;53;20907;-73
2022/12/14 06:58:57;;;;;;;31.35;14.15;;;2.80;67.20;;;;;;2540856;53;20965;-71
2022/12/14 07:01:24;;;;;;;25.30;13.18;;;2.80;67.30;;;;;;2339781;53;21416;-72
2022/12/14 07:03:52;;;;;;;28.15;12.65;;;2.80;67.30;;;;;;2342146;53;21403;-71
2022/12/14 07:06:22;;;;;;;31.37;15.20;;;2.80;67.30;;;;;;2338118;54;20947;-74
2022/12/14 07:08:48;;;;;;;26.27;13.68;;;2.80;67.30;;;;;;2337931;54;21030;-73
2022/12/14 07:11:15;;;;;;;28.62;13.10;;;2.80;67.40;;;;;;2453027;53;21282;-70
2022/12/14 07:13:42;;;;;;;32.20;14.82;;;2.80;67.50;;;;;;2365610;53;21875;-74
2022/12/14 07:16:12;;;;;;;31.05;13.68;;;2.80;67.50;;;;;;2531747;53;20964;-73
2022/12/14 07:18:39;;;;;;;25.20;11.93;;;2.80;67.50;;;;;;2337783;54;20959;-72
2022/12/14 07:21:08;;;;;;;28.17;13.62;;;2.80;67.50;;;;;;2337513;54;21709;-71
2022/12/14 07:23:38;;;;;;;23.85;12.32;;;2.80;67.50;;;;;;2337709;54;20907;-72
2022/12/14 07:26:07;;;;;;;26.10;12.00;;;2.80;67.60;;;;;;2338360;54;21051;-71
2022/12/14 07:28:35;;;;;;;31.02;14.93;;;2.80;67.70;;;;;;2337272;54;20939;-74
2022/12/14 07:31:04;;;;;;;28.15;13.32;;;2.80;67.70;;;;;;2338116;54;20927;-71
2022/12/14 07:33:31;;;;;;;30.10;13.62;;;2.80;67.80;;;;;;2337643;54;21811;-73
2022/12/14 07:36:09;;;;;;;27.90;13.40;;;2.90;67.90;;;;;;2485439;53;20963;-73
2022/12/14 07:38:36;;;;;;;24.98;12.18;;;2.90;67.80;;;;;;2583558;53;21140;-72
2022/12/14 07:41:14;;;;;;;23.05;11.80;;;2.90;67.80;;;;;;2338354;54;20943;-70
2022/12/14 07:43:42;;;;;;;26.77;12.73;;;2.90;67.80;;;;;;2584034;53;20924;-69
2022/12/14 07:46:10;;;;;;;29.08;12.65;;;2.90;67.80;;;;;;2337698;54;21420;-71
2022/12/14 07:48:37;;;;;;;22.80;11.88;;;3.00;67.80;;;;;;2480526;53;21158;-72
2022/12/14 07:51:08;;;;;;;26.87;13.27;;;3.00;67.80;;;;;;2372777;53;20942;-72
2022/12/14 07:53:35;;;;;;;23.33;11.80;;;3.00;67.80;;;;;;2338233;54;21022;-73
2022/12/14 07:56:03;;;;;;;23.90;11.45;;;3.00;67.80;;;;;;2376501;53;20923;-73
2022/12/14 07:58:31;;;;;;;31.15;13.95;;;3.00;67.80;;;;;;2337821;54;20975;-72
2022/12/14 08:02:53;;;;;;;27.17;11.95;;;3.00;67.80;;;;;;2383290;53;20911;-71
2022/12/14 08:05:21;;;;;;;22.95;10.48;;;3.10;67.40;;;;;;2345609;53;20951;-72
2022/12/14 08:07:47;;;;;;;25.52;11.43;;;3.10;67.80;;;;;;2338047;54;20916;-71
2022/12/14 08:10:14;;;;;;;29.67;13.52;;;3.10;67.90;;;;;;2582920;53;20988;-73
2022/12/14 08:12:40;;;;;;;27.13;13.20;;;3.10;68.00;;;;;;2580766;52;21274;-72
2022/12/14 08:15:08;;;;;;;25.20;11.70;;;3.10;68.10;;;;;;2585070;52;20916;-71
2022/12/14 08:17:36;;;;;;;25.88;12.37;;;3.10;68.10;;;;;;2337781;54;20987;-72
2022/12/14 08:20:03;;;;;;;22.08;11.68;;;3.20;68.20;;;;;;2338171;54;21067;-74
2022/12/14 08:22:30;;;;;;;22.50;11.10;;;3.20;68.20;;;;;;2337236;54;21480;-72
2022/12/14 08:24:56;;;;;;;23.33;11.00;;;3.20;68.20;;;;;;2338273;54;20939;-75
2022/12/14 08:27:23;;;;;;;24.25;12.15;;;3.30;68.30;;;;;;2337843;54;21369;-74
2022/12/14 08:29:49;;;;;;;23.83;12.07;;;3.30;68.30;;;;;;2338040;54;20908;-70
2022/12/14 08:32:16;;;;;;;27.87;13.23;;;3.30;68.20;;;;;;2337887;54;20931;-74
2022/12/14 08:34:42;;;;;;;26.05;12.88;;;3.30;68.20;;;;;;2583199;53;20975;-74
2022/12/14 08:37:09;;;;;;;25.37;12.57;;;3.30;68.80;;;;;;2338200;54;21426;-73
2022/12/14 08:39:36;;;;;;;25.73;12.98;;;3.30;68.10;;;;;;2586638;52;20984;-73
2022/12/14 08:42:02;;;;;;;25.83;12.63;;;3.40;68.20;;;;;;2582801;52;20884;-73
2022/12/14 08:44:29;;;;;;;24.08;11.80;;;3.40;68.20;;;;;;2583175;53;20907;-73
2022/12/14 08:46:55;;;;;;;32.40;15.10;;;3.40;68.20;;;;;;2344580;53;20949;-72
2022/12/14 08:49:22;;;;;;;24.98;13.07;;;3.50;68.30;;;;;;2339478;53;21042;-74
2022/12/14 08:51:50;;;;;;;29.42;15.02;;;3.50;68.30;;;;;;2338491;54;21730;-75
2022/12/14 08:54:18;;;;;;;29.77;15.60;;;3.50;68.30;;;;;;2433499;53;20972;-75
2022/12/14 08:56:44;;;;;;;30.35;14.30;;;3.50;68.30;;;;;;2461985;52;20963;-75
2022/12/14 08:59:11;;;;;;;25.30;12.57;;;3.50;68.30;;;;;;2338280;54;21708;-73
2022/12/14 09:01:45;;;;;;;28.75;14.57;;;3.60;68.30;;;;;;2337676;54;20898;-75
2022/12/14 09:05:01;;;;;;;25.40;13.85;;;3.60;68.30;;;;;;2337861;54;20871;-74
2022/12/14 09:07:28;;;;;;;23.62;11.65;;;3.60;68.20;;;;;;2392230;54;20883;-75
2022/12/14 09:09:55;;;;;;;27.77;13.80;;;3.70;68.40;;;;;;2583393;53;21778;-73
2022/12/14 09:12:22;;;;;;;29.90;14.98;;;3.70;68.40;;;;;;2583029;53;21452;-74
2022/12/14 09:14:49;;;;;;;24.77;11.95;;;3.70;68.40;;;;;;2584107;53;21498;-74
2022/12/14 09:17:16;;;;;;;27.55;15.50;;;3.70;68.50;;;;;;2342009;54;20947;-73
2022/12/14 09:19:42;;;;;;;26.48;12.52;;;3.70;68.50;;;;;;2337767;54;20955;-74
2022/12/14 09:22:10;;;;;;;29.12;14.60;;;3.80;68.60;;;;;;2338325;54;20947;-73
2022/12/14 09:24:36;;;;;;;22.50;12.73;;;3.80;68.60;;;;;;2338224;54;20905;-75
2022/12/14 09:27:03;;;;;;;27.40;14.05;;;3.80;68.60;;;;;;2343059;54;20984;-75
2022/12/14 09:29:29;;;;;;;30.23;13.73;;;3.90;68.70;;;;;;2340727;53;21559;-74
2022/12/14 09:31:57;;;;;;;25.30;13.75;;;3.90;68.70;;;;;;2337798;54;21308;-74
2022/12/14 09:34:25;;;;;;;26.62;13.07;;;3.90;68.60;;;;;;2337536;54;21870;-73
2022/12/14 09:36:52;;;;;;;33.58;16.70;;;3.90;68.50;;;;;;2338303;54;21713;-74
2022/12/14 09:39:48;;;;;;;30.75;15.02;;;4.00;68.50;;;;;;2338883;54;20947;-75
2022/12/14 09:42:54;;;;;;;32.13;15.32;;;4.00;68.40;;;;;;2413680;53;21496;-74
2022/12/14 09:45:26;;;;;;;26.27;13.25;;;4.00;68.30;;;;;;2353648;53;20942;-74
2022/12/14 09:48:01;;;;;;;23.45;12.20;;;4.00;68.40;;;;;;2354025;53;20967;-74
2022/12/14 09:50:27;;;;;;;24.37;12.50;;;4.10;68.40;;;;;;2583281;53;21689;-73
2022/12/14 09:53:06;;;;;;;27.02;13.00;;;4.10;68.30;;;;;;2338411;54;20987;-74
2022/12/14 09:55:34;;;;;;;25.12;13.32;;;4.10;68.20;;;;;;2338960;54;20983;-74
2022/12/14 09:58:17;;;;;;;25.85;13.57;;;4.10;68.30;;;;;;2338720;54;21698;-74
2022/12/14 10:00:47;;;;;;;25.60;12.65;;;4.10;68.20;;;;;;2338378;54;20919;-76
2022/12/14 10:03:54;;;;;;;25.12;13.18;;;4.10;68.20;;;;;;2338215;54;20935;-74
2022/12/14 10:06:46;;;;;;;23.98;12.48;;;4.10;68.10;;;;;;2338162;54;20943;-75
2022/12/14 10:09:16;;;;;;;;;;;4.20;68.20;;;;;;2341953;54;21019;-75
2022/12/14 10:12:00;;;;;;;23.00;11.70;;;4.20;67.90;;;;;;2584115;53;20079;-75
2022/12/14 10:14:49;;;;;;;20.20;10.85;;;4.20;68.20;;;;;;2585425;52;20968;-75
2022/12/14 10:17:41;;;;;;;21.80;11.52;;;4.20;68.30;;;;;;2418273;52;21217;-75
2022/12/14 10:20:30;;;;;;;19.65;9.75;;;4.20;68.90;;;;;;2341696;54;20998;-75
2022/12/14 10:22:57;;;;;;;20.35;10.95;;;4.20;68.30;;;;;;2583154;53;20962;-76
2022/12/14 10:25:31;;;;;;;24.58;11.98;;;4.20;68.40;;;;;;2337858;54;21038;-74
2022/12/14 10:28:05;;;;;;;26.52;12.80;;;4.20;68.40;;;;;;2337739;54;20958;-75
2022/12/14 10:30:42;;;;;;;22.05;11.27;;;4.20;68.40;;;;;;2338848;54;21969;-75
2022/12/14 10:33:20;;;;;;;23.25;11.85;;;4.20;68.30;;;;;;2583138;53;20915;-75
2022/12/14 10:35:54;;;;;;;24.35;12.57;;;4.20;68.20;;;;;;2583038;53;20942;-76
2022/12/14 10:41:54;;;;;;;22.77;11.38;;;4.20;68.40;;;;;;2481372;52;21387;-75
2022/12/14 10:44:46;;;;;;;26.87;12.82;;;4.30;68.00;;;;;;2344898;53;21456;-75
2022/12/14 10:47:33;;;;;;;23.20;11.45;;;4.30;68.20;;;;;;2338262;54;20951;-75
2022/12/14 10:50:20;;;;;;;24.52;12.27;;;4.30;68.40;;;;;;2338510;54;21826;-75
2022/12/14 10:52:49;;;;;;;23.00;12.15;;;4.30;68.40;;;;;;2365587;53;20971;-75
2022/12/14 10:55:48;;;;;;;22.08;11.32;;;4.30;68.60;;;;;;2341213;54;20935;-75
2022/12/14 10:58:14;;;;;;;20.67;11.20;;;4.30;68.60;;;;;;2482942;52;21405;-74
2022/12/14 11:00:41;;;;;;;16.67;9.32;;;4.30;68.60;;;;;;2338117;54;20983;-74
2022/12/14 11:03:12;;;;;;;21.98;11.25;;;4.30;68.60;;;;;;2583444;53;20963;-75
2022/12/14 11:05:55;;;;;;;20.83;11.20;;;4.30;68.60;;;;;;2583550;53;20918;-74
2022/12/14 11:08:48;;;;;;;22.02;10.32;;;4.30;68.60;;;;;;2461533;53;20943;-75
2022/12/14 11:11:16;;;;;;;22.25;11.43;;;4.30;68.50;;;;;;2337320;54;20935;-75
2022/12/14 11:14:27;;;;;;;16.77;9.38;;;4.30;68.60;;;;;;2338003;54;20931;-74
2022/12/14 11:16:53;;;;;;;17.58;9.88;;;4.30;68.30;;;;;;2337786;54;20975;-75
2022/12/14 11:19:22;;;;;;;16.52;8.90;;;4.30;68.60;;;;;;2343245;53;20907;-75
2022/12/14 11:21:50;;;;;;;20.33;10.30;;;4.30;68.70;;;;;;2583819;53;20943;-76
2022/12/14 11:24:23;;;;;;;20.08;11.02;;;4.40;68.70;;;;;;2586673;52;21857;-75
2022/12/14 11:26:57;;;;;;;19.62;10.30;;;4.40;68.70;;;;;;2337727;54;20978;-75
2022/12/14 11:29:33;;;;;;;18.42;10.25;;;4.40;68.70;;;;;;2337732;54;20927;-74
2022/12/14 11:31:59;;;;;;;22.30;11.73;;;4.40;68.70;;;;;;2337676;54;20911;-74
2022/12/14 11:34:33;;;;;;;21.23;11.12;;;4.40;68.70;;;;;;2405219;53;21787;-74
2022/12/14 11:37:22;;;;;;;19.70;10.07;;;4.40;68.70;;;;;;2582897;53;20942;-74
2022/12/14 11:39:53;;;;;;;16.77;9.20;;;4.40;68.70;;;;;;2312721;54;1567751;-73
2022/12/14 11:42:19;;;;;;;17.73;8.55;;;4.40;68.90;;;;;;2337525;54;20959;-74
2022/12/14 11:44:47;;;;;;;18.33;10.00;;;4.40;68.90;;;;;;2337762;54;20899;-74
2022/12/14 11:47:15;;;;;;;17.25;8.45;;;4.50;69.10;;;;;;2337471;54;20903;-75
2022/12/14 11:49:46;;;;;;;19.17;9.70;;;4.50;69.00;;;;;;2338482;54;20983;-74
2022/12/14 11:52:38;;;;;;;20.65;10.20;;;4.50;68.90;;;;;;2338156;54;20924;-75
2022/12/14 11:55:18;;;;;;;17.17;9.70;;;4.50;68.90;;;;;;2344923;53;21445;-74
2022/12/14 11:57:58;;;;;;;19.98;9.88;;;4.50;68.90;;;;;;2583487;53;20931;-75
2022/12/14 12:00:43;;;;;;;15.55;8.73;;;4.50;69.00;;;;;;2337366;54;20923;-74
2022/12/14 12:04:03;;;;;;;18.10;9.45;;;4.60;69.10;;;;;;2337559;54;20891;-73
2022/12/14 12:06:30;;;;;;;22.55;10.15;;;4.60;69.00;;;;;;2337768;54;20904;-74
2022/12/14 12:09:00;;;;;;;16.80;9.07;;;4.60;68.80;;;;;;2337173;54;21388;-75
2022/12/14 12:11:28;;;;;;;16.83;8.65;;;4.60;68.70;;;;;;2362766;53;20941;-75
2022/12/14 12:14:09;;;;;;;18.37;9.88;;;4.60;68.60;;;;;;2341086;54;21462;-76
2022/12/14 12:16:40;;;;;;;17.25;9.35;;;4.60;68.50;;;;;;2339865;53;20919;-74
2022/12/14 12:19:17;;;;;;;18.70;9.27;;;4.60;68.50;;;;;;2338632;54;20919;-73
2022/12/14 12:21:45;;;;;;;15.07;8.13;;;4.60;68.50;;;;;;2338082;54;20919;-73
2022/12/14 12:24:37;;;;;;;17.75;8.45;;;4.60;68.50;;;;;;2583219;53;20959;-75
2022/12/14 12:27:12;;;;;;;15.38;8.30;;;4.60;68.30;;;;;;2337951;54;21042;-72
2022/12/14 12:29:54;;;;;;;15.35;8.65;;;4.60;68.50;;;;;;2341436;54;20995;-74
2022/12/14 12:32:26;;;;;;;17.95;9.43;;;4.60;68.50;;;;;;2339792;53;20970;-73
2022/12/14 12:36:23;;;;;;;15.25;8.40;;;4.50;68.50;;;;;;2432477;53;20948;-75
2022/12/14 12:39:02;;;;;;;17.65;9.63;;;4.60;68.20;;;;;;2338295;54;20955;-75
2022/12/14 12:41:45;;;;;;;15.82;8.70;;;4.50;68.50;;;;;;2338130;54;20927;-74
2022/12/14 12:45:46;;;;;;;15.00;8.57;;;4.50;68.30;;;;;;2386221;53;20963;-75
2022/12/14 12:48:30;;;;;;;18.83;9.43;;;4.50;67.90;;;;;;2393311;53;20923;-73
2022/12/14 12:51:00;;;;;;;15.38;8.43;;;4.60;68.50;;;;;;2337852;54;20962;-74
2022/12/14 12:53:36;;;;;;;16.75;9.25;;;4.50;68.50;;;;;;2337757;54;21340;-75
2022/12/14 12:56:07;;;;;;;12.98;7.53;;;4.50;68.50;;;;;;2338424;54;20953;-73
2022/12/14 12:58:34;;;;;;;13.65;7.40;;;4.50;68.70;;;;;;2583873;53;20943;-75
2022/12/14 13:01:02;;;;;;;18.73;9.50;;;4.50;68.70;;;;;;2340945;53;20891;-72
2022/12/14 13:03:36;;;;;;;16.52;8.82;;;4.50;68.70;;;;;;2337673;54;20915;-73
2022/12/14 13:06:26;;;;;;;16.87;9.10;;;4.50;68.60;;;;;;2338344;54;21814;-75
2022/12/14 13:08:58;;;;;;;17.58;9.10;;;4.50;68.40;;;;;;2477985;53;20903;-73
2022/12/14 13:11:34;;;;;;;14.27;8.48;;;4.50;68.40;;;;;;2463187;53;21429;-75
2022/12/14 13:15:44;;;;;;;18.12;9.02;;;4.50;68.30;;;;;;2465381;53;20974;-73
2022/12/14 13:18:25;;;;;;;15.63;7.75;;;4.50;68.00;;;;;;2583099;53;21099;-73
2022/12/14 13:21:38;;;;;;;15.40;7.75;;;4.50;68.50;;;;;;2390053;53;20919;-73
2022/12/14 13:24:05;;;;;;;13.38;6.93;;;4.50;68.50;;;;;;2458307;53;21918;-73
2022/12/14 13:31:50;;;;;;;13.15;7.15;;;4.50;68.70;;;;;;2337879;54;20979;-72
2022/12/14 13:37:12;;;;;;;14.60;6.75;;;4.50;68.20;;;;;;2337956;54;20943;-72
2022/12/14 13:41:48;;;;;;;12.85;6.75;;;4.50;68.10;;;;;;2583122;53;20959;-74
2022/12/14 13:45:45;;;;;;;16.02;7.72;;;4.50;68.40;;;;;;2337834;54;20907;-73
2022/12/14 13:48:24;;;;;;;16.37;8.25;;;4.40;68.00;;;;;;2338148;54;20887;-73
2022/12/14 13:50:55;;;;;;;15.73;9.13;;;4.40;68.40;;;;;;2338239;54;20955;-72
2022/12/14 13:53:41;;;;;;;17.60;9.48;;;4.40;68.50;;;;;;2582953;53;20864;-72
2022/12/14 13:56:07;;;;;;;17.85;9.38;;;4.40;68.50;;;;;;2338488;54;21459;-74
2022/12/14 13:58:43;;;;;;;17.75;9.07;;;4.40;68.60;;;;;;2344973;53;21060;-73
2022/12/14 14:01:33;;;;;;;17.85;9.07;;;4.40;68.60;;;;;;2355767;52;20907;-74
2022/12/14 14:05:54;;;;;;;20.17;10.32;;;4.40;68.70;;;;;;2337783;54;20934;-75
2022/12/14 14:08:34;;;;;;;21.25;10.30;;;4.40;68.20;;;;;;2474539;53;20958;-73
2022/12/14 14:12:57;;;;;;;19.40;10.52;;;4.40;68.50;;;;;;2408780;53;20934;-72
2022/12/14 14:15:42;;;;;;;19.30;10.85;;;4.40;68.10;;;;;;2338003;54;20903;-73
2022/12/14 14:18:21;;;;;;;20.67;11.43;;;4.40;68.40;;;;;;2487012;53;21447;-71
2022/12/14 14:20:50;;;;;;;23.27;12.55;;;4.40;68.30;;;;;;2337927;54;21494;-73